Time;durP1;ratioP1;P1;durP2;ratioP2;P2;SDS_P1;SDS_P2;PMS_P1;PMS_P2;Temp;Humidity;BMP_temperature;BMP_pressure;BME280_temperature;BME280_humidity;BME280_pressure;Samples;Min_cycle;Max_cycle;Signal;HPM_P1;HPM_P2
2022/01/12 00:00:39;;;;;;;28.43;15.33;;;6.80;99.90;;;;;;5013224;28;20236;-83
2022/01/12 00:03:10;;;;;;;27.80;15.40;;;6.80;99.90;;;;;;5008458;28;20791;-83
2022/01/12 00:05:36;;;;;;;29.97;15.83;;;6.90;99.90;;;;;;5027639;28;20322;-84
2022/01/12 00:08:04;;;;;;;27.23;15.77;;;6.90;99.90;;;;;;5025181;28;20322;-82
2022/01/12 00:10:32;;;;;;;25.10;14.43;;;6.90;99.90;;;;;;5025789;28;21092;-85
2022/01/12 00:12:59;;;;;;;24.03;14.53;;;6.90;99.90;;;;;;5011526;28;20239;-83
2022/01/12 00:15:25;;;;;;;26.60;15.00;;;6.90;99.90;;;;;;5005374;28;20587;-82
2022/01/12 00:17:52;;;;;;;26.13;14.77;;;7.00;99.90;;;;;;5030895;28;20627;-84
2022/01/12 00:20:19;;;;;;;25.60;15.00;;;7.00;99.90;;;;;;5007800;28;20720;-84
2022/01/12 00:22:46;;;;;;;25.60;15.10;;;7.00;99.90;;;;;;5021388;28;20232;-83
2022/01/12 00:25:26;;;;;;;25.23;14.27;;;7.10;99.90;;;;;;5023030;28;20304;-84
2022/01/12 00:33:29;;;;;;;24.37;14.63;;;7.20;99.90;;;;;;5022983;28;20220;-83
2022/01/12 00:35:58;;;;;;;24.17;13.47;;;7.20;99.90;;;;;;5003010;28;20254;-82
2022/01/12 00:38:29;;;;;;;27.57;14.27;;;7.20;99.90;;;;;;5006662;28;20481;-81
2022/01/12 00:40:59;;;;;;;22.80;13.50;;;7.30;99.90;;;;;;5010261;28;20228;-81
2022/01/12 00:43:30;;;;;;;23.37;14.57;;;7.30;99.90;;;;;;5043271;28;20232;-82
2022/01/12 00:45:57;;;;;;;23.43;14.10;;;7.40;99.90;;;;;;5030036;28;20307;-82
2022/01/12 00:48:24;;;;;;;20.73;13.00;;;7.40;99.90;;;;;;5026326;28;20705;-83
2022/01/12 00:50:51;;;;;;;22.00;13.27;;;7.40;99.90;;;;;;5014965;28;20239;-85
2022/01/12 00:53:18;;;;;;;21.97;12.60;;;7.40;99.90;;;;;;5020824;28;20310;-84
2022/01/12 00:55:44;;;;;;;22.63;12.80;;;7.40;99.90;;;;;;5033224;28;20599;-83
2022/01/12 00:58:11;;;;;;;24.03;13.63;;;7.40;99.90;;;;;;5011721;28;20247;-84
2022/01/12 01:00:40;;;;;;;22.80;13.10;;;7.40;99.90;;;;;;5025175;28;20233;-83
2022/01/12 01:03:08;;;;;;;21.33;13.33;;;7.40;99.90;;;;;;5006963;28;20231;-84
2022/01/12 01:05:35;;;;;;;23.20;13.30;;;7.40;99.90;;;;;;5005377;28;20698;-83
2022/01/12 01:08:03;;;;;;;20.53;12.93;;;7.40;99.90;;;;;;5011469;28;20232;-83
2022/01/12 01:10:42;;;;;;;24.33;13.20;;;7.30;99.90;;;;;;5002814;28;20800;-83
2022/01/12 01:13:10;;;;;;;21.70;13.53;;;7.30;99.90;;;;;;5011320;28;20228;-83
2022/01/12 01:26:43;;;;;;;27.90;16.30;;;7.30;99.90;;;;;;5009224;28;20232;-83
2022/01/12 01:29:10;;;;;;;27.53;16.67;;;7.20;99.90;;;;;;5028050;28;20220;-83
2022/01/12 01:31:40;;;;;;;24.93;16.17;;;7.20;99.90;;;;;;5028917;28;20306;-84
2022/01/12 01:34:09;;;;;;;25.40;15.93;;;7.20;99.90;;;;;;5028370;28;20238;-83
2022/01/12 01:36:39;;;;;;;30.50;16.53;;;7.10;99.90;;;;;;5011939;28;20232;-84
2022/01/12 01:39:08;;;;;;;30.17;16.63;;;7.10;99.90;;;;;;5009900;28;20717;-84
2022/01/12 01:41:35;;;;;;;28.77;17.27;;;7.10;99.90;;;;;;5029688;28;20739;-83
2022/01/12 01:53:15;;;;;;;28.63;17.43;;;7.10;99.90;;;;;;5006874;28;20276;-83
2022/01/12 01:55:28;;;;;;;29.70;16.63;;;7.00;99.90;;;;;;5009722;28;20220;-83
2022/01/12 01:57:58;;;;;;;28.23;17.10;;;7.00;99.90;;;;;;5006994;28;20223;-83
2022/01/12 02:00:27;;;;;;;32.43;18.20;;;7.00;99.90;;;;;;5005320;28;20318;-83
2022/01/12 02:03:00;;;;;;;28.87;17.20;;;7.00;99.90;;;;;;5005142;28;20279;-83
2022/01/12 02:05:42;;;;;;;27.57;17.37;;;7.00;99.90;;;;;;5008487;28;21172;-84
2022/01/12 02:08:09;;;;;;;26.87;17.27;;;7.00;99.90;;;;;;4994588;28;20241;-83
2022/01/12 02:10:44;;;;;;;30.53;18.27;;;7.00;99.90;;;;;;5008639;28;20228;-85
2022/01/12 02:13:11;;;;;;;30.10;17.23;;;7.00;99.90;;;;;;5023746;28;20242;-83
2022/01/12 02:15:40;;;;;;;29.67;18.03;;;7.00;99.90;;;;;;5011115;28;20232;-82
2022/01/12 02:18:15;;;;;;;25.97;16.30;;;6.90;99.90;;;;;;5025845;28;20235;-82
2022/01/12 02:40:37;;;;;;;33.27;20.20;;;7.00;99.90;;;;;;5008124;28;20242;-82
2022/01/12 02:43:11;;;;;;;33.80;20.27;;;7.10;99.90;;;;;;5008172;28;20570;-81
2022/01/12 02:51:14;;;;;;;38.37;21.67;;;7.10;99.90;;;;;;5011220;28;20229;-84
2022/01/12 02:53:43;;;;;;;39.80;23.27;;;7.10;99.90;;;;;;5012545;28;20232;-83
2022/01/12 02:56:15;;;;;;;38.73;22.77;;;7.10;99.90;;;;;;5016059;28;20246;-82
2022/01/12 02:58:44;;;;;;;46.13;26.43;;;7.10;99.90;;;;;;5041810;28;20318;-82
2022/01/12 03:03:56;;;;;;;54.30;30.97;;;7.00;99.90;;;;;;5029598;28;20251;-83
2022/01/12 03:06:28;;;;;;;53.83;30.73;;;7.00;99.90;;;;;;5030183;28;20692;-82
2022/01/12 03:08:57;;;;;;;50.83;30.80;;;7.00;99.90;;;;;;5014483;28;20243;-82
2022/01/12 03:11:25;;;;;;;57.93;32.00;;;7.00;99.90;;;;;;5030588;28;20254;-82
2022/01/12 03:13:54;;;;;;;54.67;31.77;;;7.00;99.90;;;;;;5030182;28;20231;-83
2022/01/12 03:16:24;;;;;;;56.13;32.23;;;7.00;99.90;;;;;;5013469;28;20481;-81
2022/01/12 03:18:53;;;;;;;55.93;30.17;;;7.00;99.90;;;;;;5031145;28;20233;-84
2022/01/12 03:21:22;;;;;;;52.57;30.83;;;7.00;99.90;;;;;;5030134;28;20342;-82
2022/01/12 03:23:50;;;;;;;57.77;31.13;;;7.00;99.90;;;;;;5029597;28;20332;-81
2022/01/12 03:26:19;;;;;;;54.97;30.37;;;7.00;99.90;;;;;;5029817;28;20598;-81
2022/01/12 03:28:52;;;;;;;53.23;28.50;;;7.00;99.90;;;;;;5030527;28;20247;-82
2022/01/12 03:31:22;;;;;;;47.37;27.23;;;7.00;99.90;;;;;;5020966;28;20297;-81
2022/01/12 03:33:57;;;;;;;51.03;26.87;;;7.00;99.90;;;;;;5033892;28;20328;-81
2022/01/12 03:36:28;;;;;;;46.87;26.77;;;7.00;99.90;;;;;;5016027;28;20235;-81
2022/01/12 03:38:57;;;;;;;46.43;26.23;;;7.00;99.90;;;;;;5010553;28;20691;-81
2022/01/12 03:41:27;;;;;;;45.90;25.83;;;7.00;99.90;;;;;;5028481;28;20265;-81
2022/01/12 03:43:55;;;;;;;51.47;26.70;;;7.00;99.90;;;;;;5008131;28;20246;-81
2022/01/12 03:46:28;;;;;;;48.63;26.33;;;7.00;99.90;;;;;;5021853;28;20231;-82
2022/01/12 03:48:55;;;;;;;47.53;26.80;;;7.00;99.90;;;;;;5018163;28;20231;-82
2022/01/12 03:51:21;;;;;;;45.37;25.17;;;7.00;99.90;;;;;;5027765;28;20228;-82
2022/01/12 03:53:48;;;;;;;50.10;26.47;;;7.00;99.90;;;;;;5022075;28;20319;-82
2022/01/12 03:56:15;;;;;;;46.93;25.20;;;7.00;99.90;;;;;;5030525;28;20309;-82
2022/01/12 03:58:43;;;;;;;51.20;26.60;;;7.00;99.90;;;;;;5012971;28;20359;-83
2022/01/12 04:01:10;;;;;;;44.70;25.37;;;7.00;99.90;;;;;;5029974;28;20242;-83
2022/01/12 04:03:41;;;;;;;44.93;26.10;;;7.00;99.90;;;;;;5030201;28;20720;-83
2022/01/12 04:08:52;;;;;;;40.70;24.37;;;7.00;99.90;;;;;;5013626;28;20544;-83
2022/01/12 04:11:19;;;;;;;48.33;24.10;;;7.00;99.90;;;;;;5010404;28;20234;-82
2022/01/12 04:13:48;;;;;;;43.60;25.43;;;7.00;99.90;;;;;;5008855;28;20255;-83
2022/01/12 04:16:16;;;;;;;40.37;24.97;;;7.00;99.90;;;;;;5012125;28;20258;-84
2022/01/12 04:18:43;;;;;;;41.47;25.47;;;7.00;99.90;;;;;;5011883;28;20220;-84
2022/01/12 04:21:12;;;;;;;42.13;25.50;;;6.90;99.90;;;;;;5012810;28;20229;-82
2022/01/12 04:23:42;;;;;;;42.03;25.37;;;7.00;99.90;;;;;;5012484;28;20246;-84
2022/01/12 04:26:13;;;;;;;42.93;25.87;;;7.00;99.90;;;;;;5011562;28;20632;-83
2022/01/12 04:28:42;;;;;;;48.07;26.37;;;7.00;99.90;;;;;;5031590;28;20236;-83
2022/01/12 04:31:11;;;;;;;71.93;27.03;;;7.00;99.90;;;;;;5012037;28;21033;-82
2022/01/12 04:33:40;;;;;;;46.07;27.00;;;7.00;99.90;;;;;;5012041;28;20240;-83
2022/01/12 04:36:09;;;;;;;49.30;25.17;;;7.00;99.90;;;;;;5013418;28;20243;-83
2022/01/12 04:38:38;;;;;;;47.77;26.33;;;7.00;99.90;;;;;;5012735;28;20224;-82
2022/01/12 04:41:07;;;;;;;45.13;26.23;;;7.00;99.90;;;;;;5011744;28;20237;-82
2022/01/12 04:43:35;;;;;;;45.20;26.20;;;7.00;99.90;;;;;;5011943;28;20319;-82
2022/01/12 04:46:22;;;;;;;47.50;26.73;;;7.00;99.90;;;;;;5012435;28;20282;-83
2022/01/12 04:49:07;;;;;;;47.70;25.93;;;7.00;99.90;;;;;;5014845;28;20239;-84
2022/01/12 04:51:34;;;;;;;42.90;25.57;;;7.00;99.90;;;;;;5011755;28;20576;-83
2022/01/12 04:54:01;;;;;;;45.53;25.60;;;7.00;99.90;;;;;;5029943;28;20318;-83
2022/01/12 04:56:30;;;;;;;41.97;24.40;;;7.00;99.90;;;;;;5010570;28;20235;-84
2022/01/12 04:58:57;;;;;;;42.83;24.83;;;7.00;99.90;;;;;;5013152;28;20229;-83
2022/01/12 05:01:25;;;;;;;41.97;24.87;;;7.00;99.90;;;;;;5013399;28;20235;-83
2022/01/12 05:06:54;;;;;;;35.83;22.80;;;7.00;99.90;;;;;;5016405;28;20236;-83
2022/01/12 05:09:44;;;;;;;39.23;23.80;;;7.10;99.90;;;;;;5029406;28;20248;-82
2022/01/12 05:15:05;;;;;;;39.70;24.07;;;7.10;99.90;;;;;;5002093;28;20595;-84
2022/01/12 05:17:33;;;;;;;35.50;22.17;;;7.10;99.90;;;;;;5021712;28;20313;-84
2022/01/12 05:20:01;;;;;;;39.40;23.50;;;7.10;99.90;;;;;;5029794;28;20564;-84
2022/01/12 05:22:28;;;;;;;67.70;25.33;;;7.10;99.90;;;;;;5005797;28;20729;-86
2022/01/12 05:24:54;;;;;;;208.67;32.27;;;7.10;99.90;;;;;;5009816;28;20318;-86
2022/01/12 05:27:21;;;;;;;55.30;25.13;;;7.10;99.90;;;;;;5004395;28;20243;-86
2022/01/12 05:29:48;;;;;;;97.20;25.37;;;7.10;99.90;;;;;;5015358;28;20231;-86
2022/01/12 05:32:15;;;;;;;92.77;26.00;;;7.10;99.90;;;;;;5022755;28;20254;-84
2022/01/12 05:34:43;;;;;;;82.90;26.50;;;7.10;99.90;;;;;;5008797;28;20278;-83
2022/01/12 05:37:12;;;;;;;44.23;23.23;;;7.20;99.90;;;;;;5007072;28;20259;-84
2022/01/12 05:39:39;;;;;;;58.57;24.93;;;7.20;99.90;;;;;;5027811;28;20773;-83
2022/01/12 05:42:07;;;;;;;55.83;24.67;;;7.20;99.90;;;;;;5012552;28;20222;-84
2022/01/12 05:44:35;;;;;;;75.67;25.50;;;7.20;99.90;;;;;;5007090;28;20241;-84
2022/01/12 05:47:04;;;;;;;88.40;26.67;;;7.20;99.90;;;;;;5018451;28;20248;-84
2022/01/12 05:49:34;;;;;;;51.60;26.00;;;7.20;99.90;;;;;;5012802;28;20297;-82
2022/01/12 05:52:00;;;;;;;65.60;26.53;;;7.20;99.90;;;;;;5015047;28;20266;-83
2022/01/12 05:54:28;;;;;;;63.23;26.70;;;7.20;99.90;;;;;;5019335;28;20307;-82
2022/01/12 05:56:56;;;;;;;43.90;24.13;;;7.20;99.90;;;;;;5004858;28;20244;-81
2022/01/12 05:59:23;;;;;;;57.50;26.53;;;7.30;99.90;;;;;;5005686;28;20224;-81
2022/01/12 06:01:50;;;;;;;47.10;25.73;;;7.30;99.90;;;;;;4998352;28;20221;-82
2022/01/12 06:04:17;;;;;;;43.50;25.70;;;7.30;99.90;;;;;;5000183;28;20239;-82
2022/01/12 06:06:44;;;;;;;56.93;26.07;;;7.30;99.90;;;;;;5010354;28;20239;-80
2022/01/12 06:09:11;;;;;;;195.47;34.67;;;7.30;99.90;;;;;;5016877;28;20698;-79
2022/01/12 06:11:40;;;;;;;45.43;24.23;;;7.30;99.90;;;;;;5002080;28;20217;-79
2022/01/12 06:14:08;;;;;;;51.30;25.20;;;7.30;99.90;;;;;;5006780;28;20224;-78
2022/01/12 06:16:35;;;;;;;150.50;32.53;;;7.30;99.90;;;;;;5005395;28;20772;-79
2022/01/12 06:19:01;;;;;;;100.23;29.17;;;7.40;99.90;;;;;;5011229;28;20641;-79
2022/01/12 06:21:33;;;;;;;141.73;31.97;;;7.30;99.90;;;;;;5019678;28;20251;-78
2022/01/12 06:24:04;;;;;;;51.73;25.47;;;7.40;99.90;;;;;;5008914;28;20225;-80
2022/01/12 06:26:31;;;;;;;52.37;25.93;;;7.40;99.90;;;;;;5035408;28;20435;-77
2022/01/12 06:29:24;;;;;;;49.53;25.90;;;7.40;99.90;;;;;;5017269;28;20252;-79
2022/01/12 06:31:54;;;;;;;64.03;25.47;;;7.40;99.90;;;;;;5010756;28;20238;-79
2022/01/12 06:34:21;;;;;;;53.63;24.50;;;7.40;99.90;;;;;;5016245;28;20228;-80
2022/01/12 06:36:48;;;;;;;54.30;24.83;;;7.40;99.90;;;;;;5001162;28;20237;-84
2022/01/12 06:39:20;;;;;;;58.83;26.27;;;7.40;99.90;;;;;;5007111;28;20223;-83
2022/01/12 06:41:48;;;;;;;108.33;28.80;;;7.40;99.90;;;;;;5018231;28;20237;-83
2022/01/12 06:44:17;;;;;;;56.97;24.40;;;7.40;99.90;;;;;;5013381;28;20223;-83
2022/01/12 06:46:45;;;;;;;56.20;25.13;;;7.50;99.90;;;;;;5005372;28;20324;-83
2022/01/12 06:49:13;;;;;;;88.53;26.83;;;7.50;99.90;;;;;;5015457;28;20293;-84
2022/01/12 06:51:41;;;;;;;41.87;23.27;;;7.50;99.90;;;;;;5026187;28;20263;-83
2022/01/12 06:54:07;;;;;;;45.43;22.00;;;7.40;99.90;;;;;;5019202;28;20318;-83
2022/01/12 06:56:35;;;;;;;64.47;24.10;;;7.40;99.90;;;;;;5014570;28;20606;-84
2022/01/12 06:59:02;;;;;;;52.43;23.57;;;7.50;99.90;;;;;;5008508;28;20708;-83
2022/01/12 07:01:31;;;;;;;164.40;29.73;;;7.50;99.90;;;;;;5009003;28;20331;-83
2022/01/12 07:03:58;;;;;;;47.07;21.77;;;7.50;99.90;;;;;;5002395;28;20225;-83
2022/01/12 07:06:26;;;;;;;49.67;21.70;;;7.50;99.90;;;;;;5020196;28;20232;-84
2022/01/12 07:08:52;;;;;;;42.13;21.20;;;7.50;99.90;;;;;;5017332;28;20239;-84
2022/01/12 07:11:39;;;;;;;61.53;21.90;;;7.50;99.90;;;;;;5027618;28;20220;-83
2022/01/12 07:14:17;;;;;;;47.43;20.70;;;7.50;99.90;;;;;;5014245;28;20857;-84
2022/01/12 07:16:45;;;;;;;42.30;20.07;;;7.50;99.90;;;;;;5021378;28;20224;-83
2022/01/12 07:19:12;;;;;;;37.27;19.07;;;7.50;99.90;;;;;;5013484;28;20224;-84
2022/01/12 07:21:39;;;;;;;41.73;19.37;;;7.50;99.90;;;;;;5016222;28;20319;-83
2022/01/12 07:24:06;;;;;;;46.07;18.97;;;7.50;99.90;;;;;;5008111;28;21053;-83
2022/01/12 07:26:34;;;;;;;37.53;19.13;;;7.50;99.90;;;;;;5015580;28;20794;-83
2022/01/12 07:29:01;;;;;;;39.77;19.13;;;7.50;99.90;;;;;;5010917;28;20228;-83
2022/01/12 07:31:27;;;;;;;34.03;18.03;;;7.50;99.90;;;;;;5023872;28;20228;-83
2022/01/12 07:33:55;;;;;;;34.23;18.60;;;7.50;99.90;;;;;;5039763;28;20218;-83
2022/01/12 07:36:22;;;;;;;44.87;17.93;;;7.50;99.90;;;;;;5002303;28;20280;-83
2022/01/12 07:38:53;;;;;;;37.33;17.77;;;7.40;99.90;;;;;;5014942;28;20233;-82
2022/01/12 07:41:20;;;;;;;36.27;17.50;;;7.40;99.90;;;;;;5013615;28;20247;-83
2022/01/12 07:43:47;;;;;;;39.13;18.90;;;7.40;99.90;;;;;;5003985;28;20267;-81
2022/01/12 07:46:14;;;;;;;56.77;21.73;;;7.40;99.90;;;;;;5008859;28;20307;-81
2022/01/12 07:48:40;;;;;;;39.40;19.40;;;7.40;99.90;;;;;;5027614;28;20235;-83
2022/01/12 07:51:09;;;;;;;40.07;19.07;;;7.40;99.90;;;;;;5027329;28;20319;-83
2022/01/12 07:53:36;;;;;;;41.53;19.23;;;7.50;99.90;;;;;;5026247;28;20709;-82
2022/01/12 07:56:03;;;;;;;38.43;18.50;;;7.50;99.90;;;;;;5013884;28;20375;-83
2022/01/12 07:58:29;;;;;;;38.47;18.03;;;7.50;99.90;;;;;;5000757;28;20680;-83
2022/01/12 08:00:56;;;;;;;41.53;18.73;;;7.50;99.90;;;;;;5013155;28;20229;-82
2022/01/12 08:03:23;;;;;;;42.73;19.40;;;7.50;99.90;;;;;;5023432;28;20238;-83
2022/01/12 08:05:50;;;;;;;39.33;17.90;;;7.50;99.90;;;;;;5017955;28;20258;-83
2022/01/12 08:08:18;;;;;;;35.30;17.70;;;7.60;99.90;;;;;;5011162;28;20327;-82
2022/01/12 08:10:45;;;;;;;42.03;18.43;;;7.60;99.90;;;;;;5010302;28;20240;-84
2022/01/12 08:13:12;;;;;;;41.10;19.00;;;7.60;99.90;;;;;;5023218;28;20231;-83
2022/01/12 08:15:38;;;;;;;39.43;18.30;;;7.60;99.90;;;;;;5009763;28;20232;-83
2022/01/12 08:18:05;;;;;;;40.23;18.57;;;7.60;99.90;;;;;;5014880;28;20230;-82
2022/01/12 08:20:32;;;;;;;36.67;18.07;;;7.60;99.90;;;;;;5010090;28;20242;-82
2022/01/12 08:22:59;;;;;;;34.97;17.33;;;7.60;99.90;;;;;;5006994;28;20228;-83
2022/01/12 08:25:27;;;;;;;36.93;17.73;;;7.60;99.90;;;;;;5030555;28;20220;-82
2022/01/12 08:27:54;;;;;;;43.60;18.20;;;7.70;99.90;;;;;;5015493;28;20228;-83
2022/01/12 08:30:28;;;;;;;40.10;19.00;;;7.70;99.90;;;;;;5023090;28;20239;-83
2022/01/12 08:32:56;;;;;;;37.27;17.40;;;7.70;99.90;;;;;;5016094;28;20231;-83
2022/01/12 08:35:23;;;;;;;37.57;18.50;;;7.70;99.90;;;;;;5023913;28;20270;-83
2022/01/12 08:37:50;;;;;;;41.90;20.03;;;7.70;99.90;;;;;;5014644;28;20287;-83
2022/01/12 08:40:19;;;;;;;39.50;18.50;;;7.70;99.90;;;;;;5023998;28;20307;-83
2022/01/12 08:42:48;;;;;;;41.03;18.07;;;7.80;99.90;;;;;;5011855;28;20582;-84
2022/01/12 08:45:16;;;;;;;48.53;19.27;;;7.80;99.90;;;;;;5022962;28;20233;-82
2022/01/12 08:47:43;;;;;;;46.83;19.57;;;7.90;99.90;;;;;;5011937;28;20780;-82
2022/01/12 08:50:10;;;;;;;39.33;19.43;;;7.90;99.90;;;;;;5026480;28;20929;-82
2022/01/12 08:52:37;;;;;;;44.53;19.10;;;7.90;99.90;;;;;;5007990;28;20863;-82
2022/01/12 08:55:05;;;;;;;38.70;18.97;;;8.00;99.90;;;;;;5013810;28;20224;-82
2022/01/12 08:57:32;;;;;;;37.27;18.93;;;7.90;99.90;;;;;;5028699;28;20327;-83
2022/01/12 09:00:01;;;;;;;41.53;18.93;;;8.00;99.90;;;;;;5000012;28;20705;-83
2022/01/12 09:02:28;;;;;;;36.03;18.10;;;8.00;99.90;;;;;;5001618;28;20233;-83
2022/01/12 09:04:55;;;;;;;36.60;17.87;;;7.90;99.90;;;;;;5022282;28;20267;-84
2022/01/12 09:07:21;;;;;;;38.97;17.63;;;8.00;99.90;;;;;;5000092;28;20661;-83
2022/01/12 09:09:48;;;;;;;40.00;18.87;;;8.00;99.90;;;;;;5027568;28;20241;-83
2022/01/12 09:12:16;;;;;;;38.13;19.13;;;8.00;99.90;;;;;;5035781;28;20238;-83
2022/01/12 09:14:43;;;;;;;43.70;18.67;;;8.00;99.90;;;;;;5003950;28;20260;-83
2022/01/12 09:17:16;;;;;;;30.33;15.73;;;8.00;99.90;;;;;;5006152;28;20236;-83
2022/01/12 09:19:43;;;;;;;37.03;17.03;;;8.00;99.90;;;;;;5013769;28;21135;-83
2022/01/12 09:22:10;;;;;;;35.67;17.30;;;8.10;99.90;;;;;;5031975;28;20233;-83
2022/01/12 09:24:37;;;;;;;39.13;17.47;;;8.10;99.90;;;;;;5023081;28;20235;-83
2022/01/12 09:27:04;;;;;;;37.77;18.27;;;8.10;99.90;;;;;;5009490;28;20220;-83
2022/01/12 09:29:31;;;;;;;35.20;16.33;;;8.10;99.90;;;;;;5027589;28;20243;-84
2022/01/12 09:31:58;;;;;;;39.63;16.63;;;8.20;99.90;;;;;;5003508;28;20310;-83
2022/01/12 09:34:26;;;;;;;36.87;16.57;;;8.20;99.90;;;;;;5011625;28;20240;-83
2022/01/12 09:36:52;;;;;;;35.10;15.97;;;8.20;99.90;;;;;;5007225;28;20229;-76
2022/01/12 09:39:19;;;;;;;37.90;17.63;;;8.20;99.90;;;;;;5023710;28;20612;-77
2022/01/12 09:41:46;;;;;;;34.57;16.23;;;8.20;99.90;;;;;;5026541;28;20229;-78
2022/01/12 09:44:12;;;;;;;36.53;17.80;;;8.30;99.90;;;;;;5018609;28;20239;-77
2022/01/12 09:46:39;;;;;;;36.87;16.20;;;8.30;99.90;;;;;;5022648;28;20732;-77
2022/01/12 09:49:06;;;;;;;33.53;16.40;;;8.30;99.90;;;;;;5030908;28;20758;-79
2022/01/12 09:51:34;;;;;;;32.63;15.20;;;8.30;99.90;;;;;;5022617;28;20240;-78
2022/01/12 09:54:01;;;;;;;31.60;15.87;;;8.30;99.90;;;;;;5030251;28;20228;-77
2022/01/12 09:56:30;;;;;;;36.00;16.93;;;8.30;99.90;;;;;;5013939;28;20234;-78
2022/01/12 09:59:02;;;;;;;36.07;14.63;;;8.30;99.90;;;;;;4998842;28;20838;-77
2022/01/12 10:01:31;;;;;;;33.20;16.23;;;8.40;99.90;;;;;;5020384;28;20792;-77
2022/01/12 10:04:08;;;;;;;29.33;15.17;;;8.40;99.90;;;;;;5020431;28;20228;-77
2022/01/12 10:06:40;;;;;;;32.07;15.17;;;8.40;99.90;;;;;;5001798;28;20251;-78
2022/01/12 10:09:08;;;;;;;32.23;15.67;;;8.40;99.90;;;;;;5016548;28;20228;-77
2022/01/12 10:11:34;;;;;;;31.23;15.23;;;8.40;99.90;;;;;;5021607;28;20235;-77
2022/01/12 10:14:03;;;;;;;27.53;14.47;;;8.40;99.90;;;;;;5004721;28;20245;-77
2022/01/12 10:16:30;;;;;;;26.23;14.33;;;8.50;99.90;;;;;;5019468;28;20236;-78
2022/01/12 10:18:59;;;;;;;29.67;13.13;;;8.50;99.90;;;;;;5019961;28;20224;-77
2022/01/12 10:21:28;;;;;;;23.53;12.97;;;8.60;99.90;;;;;;5022038;28;20252;-77
2022/01/12 10:24:05;;;;;;;29.73;15.07;;;8.70;99.90;;;;;;5000883;28;20235;-77
2022/01/12 10:26:39;;;;;;;28.63;14.07;;;8.70;99.90;;;;;;5005990;28;20293;-79
2022/01/12 10:29:10;;;;;;;28.07;13.37;;;8.70;99.90;;;;;;5010395;28;20325;-80
2022/01/12 10:31:45;;;;;;;27.40;13.60;;;8.80;99.90;;;;;;5022503;28;20580;-81
2022/01/12 10:34:12;;;;;;;28.03;14.13;;;8.80;99.90;;;;;;5011807;28;20263;-80
2022/01/12 10:36:40;;;;;;;26.80;14.47;;;8.80;99.90;;;;;;5013523;28;20244;-80
2022/01/12 10:39:11;;;;;;;26.07;13.83;;;8.80;99.90;;;;;;5025024;28;20270;-80
2022/01/12 10:41:42;;;;;;;30.30;14.13;;;8.90;99.90;;;;;;5019688;28;20233;-79
2022/01/12 10:44:19;;;;;;;24.37;12.67;;;8.90;99.90;;;;;;5006882;28;20247;-80
2022/01/12 10:46:48;;;;;;;27.37;12.97;;;8.90;99.90;;;;;;5002985;28;20283;-81
2022/01/12 10:49:20;;;;;;;28.87;14.00;;;8.90;99.90;;;;;;4998353;28;20229;-82
2022/01/12 10:51:58;;;;;;;27.63;13.47;;;8.90;99.90;;;;;;5026148;28;20240;-80
2022/01/12 10:54:26;;;;;;;22.43;12.43;;;8.90;99.90;;;;;;5012765;28;20703;-80
2022/01/12 10:56:53;;;;;;;24.03;12.37;;;9.00;99.90;;;;;;5017333;28;20338;-80
2022/01/12 10:59:22;;;;;;;22.70;11.53;;;9.00;99.90;;;;;;5020494;28;20275;-79
2022/01/12 11:01:49;;;;;;;20.63;10.60;;;9.00;99.90;;;;;;5020898;28;20287;-80
2022/01/12 11:04:16;;;;;;;18.40;10.10;;;9.00;99.90;;;;;;4993342;28;20320;-80
2022/01/12 11:06:43;;;;;;;21.83;11.03;;;9.00;99.90;;;;;;5024234;28;20304;-80
2022/01/12 11:09:10;;;;;;;21.80;9.93;;;9.00;99.90;;;;;;5017897;28;20815;-80
2022/01/12 11:11:38;;;;;;;19.47;9.60;;;9.00;99.90;;;;;;5024589;28;20243;-80
2022/01/12 11:14:05;;;;;;;19.37;9.63;;;8.90;99.90;;;;;;5033483;23;20729;-78
2022/01/12 11:16:32;;;;;;;21.70;9.50;;;9.00;99.90;;;;;;5058156;22;20235;-78
2022/01/12 11:19:01;;;;;;;20.40;9.03;;;9.00;99.90;;;;;;5081688;28;20228;-80
2022/01/12 11:21:36;;;;;;;20.93;9.10;;;9.00;99.90;;;;;;5063514;28;20814;-81
2022/01/12 11:24:05;;;;;;;21.27;8.57;;;9.00;99.90;;;;;;5037438;22;20233;-78
2022/01/12 11:26:32;;;;;;;17.97;8.17;;;9.00;99.90;;;;;;5024280;28;20286;-81
2022/01/12 11:29:01;;;;;;;22.27;7.87;;;8.90;99.90;;;;;;5018070;28;20238;-81
2022/01/12 11:31:29;;;;;;;22.03;8.97;;;9.10;99.90;;;;;;5062399;23;20229;-80
2022/01/12 11:33:56;;;;;;;20.90;7.03;;;9.20;99.90;;;;;;5066577;28;20316;-80
2022/01/12 11:36:27;;;;;;;14.50;6.67;;;9.20;99.90;;;;;;5049198;28;20595;-81
2022/01/12 11:39:01;;;;;;;18.87;6.80;;;9.30;99.90;;;;;;5049766;28;20324;-81
2022/01/12 11:41:29;;;;;;;17.37;6.33;;;9.40;99.90;;;;;;5066396;28;20252;-79
2022/01/12 11:44:05;;;;;;;17.07;6.90;;;9.50;99.90;;;;;;5031092;28;20803;-78
2022/01/12 11:46:43;;;;;;;19.03;6.83;;;9.60;99.90;;;;;;5046948;28;20243;-80
2022/01/12 11:49:10;;;;;;;16.43;6.83;;;9.70;99.90;;;;;;5045412;28;20301;-80
2022/01/12 11:51:39;;;;;;;19.47;7.70;;;9.80;99.90;;;;;;5031113;28;20239;-80
2022/01/12 11:54:11;;;;;;;18.27;7.30;;;9.90;99.90;;;;;;5049341;28;20662;-79
2022/01/12 11:56:39;;;;;;;18.37;8.43;;;9.90;99.90;;;;;;5029683;28;20249;-79
2022/01/12 11:59:13;;;;;;;20.60;8.73;;;10.00;99.90;;;;;;5054260;28;20225;-79
2022/01/12 12:01:44;;;;;;;18.77;8.33;;;10.10;99.90;;;;;;5039289;28;20236;-80
2022/01/12 12:04:26;;;;;;;21.63;8.90;;;10.20;99.90;;;;;;5034959;28;20231;-82
2022/01/12 12:07:07;;;;;;;19.10;8.77;;;10.30;99.90;;;;;;5036552;28;20230;-78
2022/01/12 12:09:41;;;;;;;22.87;9.70;;;10.40;99.90;;;;;;5020787;28;20256;-78
2022/01/12 12:12:13;;;;;;;26.63;9.03;;;10.40;99.90;;;;;;5046920;28;20219;-78
2022/01/12 12:14:43;;;;;;;23.87;9.50;;;10.50;99.90;;;;;;5047789;28;20343;-78
2022/01/12 12:17:10;;;;;;;22.43;9.57;;;10.50;99.90;;;;;;5033642;28;20233;-78
2022/01/12 12:19:37;;;;;;;24.60;10.13;;;10.60;99.90;;;;;;5029455;28;20952;-78
2022/01/12 12:22:12;;;;;;;29.73;10.70;;;10.70;99.90;;;;;;5045492;28;20231;-78
2022/01/12 12:24:39;;;;;;;22.10;10.57;;;10.90;99.90;;;;;;5038962;28;20321;-78
2022/01/12 12:27:08;;;;;;;21.87;10.37;;;11.00;99.90;;;;;;5053148;28;20744;-78
2022/01/12 12:29:35;;;;;;;22.90;11.03;;;11.20;99.90;;;;;;5050085;28;20236;-78
2022/01/12 12:32:05;;;;;;;24.97;11.00;;;11.30;99.90;;;;;;5033933;28;20341;-78
2022/01/12 12:34:33;;;;;;;24.83;10.90;;;11.30;99.90;;;;;;5056488;28;20246;-78
2022/01/12 12:37:05;;;;;;;25.43;11.03;;;11.30;99.90;;;;;;5037204;28;20950;-78
2022/01/12 12:39:35;;;;;;;23.37;10.70;;;11.30;99.90;;;;;;5047221;28;20241;-78
2022/01/12 12:42:03;;;;;;;24.77;11.20;;;11.30;99.90;;;;;;5055053;28;20331;-78
2022/01/12 12:44:32;;;;;;;24.53;10.57;;;11.30;99.90;;;;;;5048009;28;20323;-78
2022/01/12 12:47:09;;;;;;;21.43;9.40;;;11.30;99.90;;;;;;5049410;28;20230;-78
2022/01/12 12:49:46;;;;;;;20.50;9.77;;;11.30;99.90;;;;;;5052898;28;20248;-78
2022/01/12 12:52:13;;;;;;;21.23;10.07;;;11.30;99.90;;;;;;5054653;28;20810;-78
2022/01/12 12:54:42;;;;;;;21.17;9.07;;;11.30;99.90;;;;;;5049549;28;20231;-78
2022/01/12 12:57:11;;;;;;;23.43;10.30;;;11.20;99.90;;;;;;5040661;28;20725;-78
2022/01/12 12:59:37;;;;;;;20.77;8.47;;;11.20;99.90;;;;;;5046923;28;20228;-78
2022/01/12 13:02:12;;;;;;;23.73;9.97;;;11.10;99.90;;;;;;5052193;28;20216;-80
2022/01/12 13:04:40;;;;;;;24.53;9.73;;;11.10;99.90;;;;;;5039372;28;20234;-80
2022/01/12 13:07:17;;;;;;;20.83;9.37;;;11.00;99.90;;;;;;5039422;28;21020;-80
2022/01/12 13:09:45;;;;;;;27.43;9.17;;;10.90;99.90;;;;;;5045677;28;20234;-80
2022/01/12 13:12:12;;;;;;;22.17;9.70;;;10.90;99.90;;;;;;5038650;28;20231;-81
2022/01/12 13:14:44;;;;;;;22.70;9.03;;;10.80;99.90;;;;;;5051354;28;20243;-80
2022/01/12 13:17:12;;;;;;;21.20;8.80;;;10.80;99.90;;;;;;5056557;28;20229;-80
2022/01/12 13:22:28;;;;;;;25.57;8.77;;;10.70;99.90;;;;;;5057991;28;20767;-80
2022/01/12 13:24:56;;;;;;;20.63;8.73;;;10.70;99.90;;;;;;5040843;28;20228;-80
2022/01/12 13:27:23;;;;;;;22.17;9.17;;;10.70;99.90;;;;;;5038139;28;20792;-80
2022/01/12 13:29:50;;;;;;;23.50;9.23;;;10.70;99.90;;;;;;5039396;28;20929;-80
2022/01/12 13:32:19;;;;;;;18.93;8.90;;;10.60;99.90;;;;;;5049579;28;20215;-81
2022/01/12 13:34:55;;;;;;;25.83;9.10;;;10.60;99.90;;;;;;5044099;28;20230;-81
2022/01/12 13:37:22;;;;;;;19.13;8.43;;;10.60;99.90;;;;;;5048407;28;20226;-81
2022/01/12 13:40:01;;;;;;;20.50;8.70;;;10.60;99.90;;;;;;5041708;28;20699;-81
2022/01/12 13:42:27;;;;;;;19.67;8.03;;;10.70;99.90;;;;;;5046110;28;20242;-83
2022/01/12 13:45:04;;;;;;;21.97;9.83;;;10.70;99.90;;;;;;5029551;28;20228;-80
2022/01/12 13:47:35;;;;;;;19.53;8.00;;;10.80;99.90;;;;;;5020445;28;20236;-83
2022/01/12 13:50:07;;;;;;;15.00;7.03;;;10.80;99.90;;;;;;5046716;28;20241;-80